This is the latest recevied weather packets stored in our database for station/object JI1UWB-13. If no packets are shown the sender has not sent any weather packets the latest 10 day(s).
| Time | Temp. | Humidity | Pressure | Rain* | Wind** | Luminosity | Snow |
|---|---|---|---|---|---|---|---|
| 1777575916 | 10.56° C | 100% | 1015.7 hPa | 2.29 mm | - | - | - |
| 1777571138 | 10.56° C | 100% | 1016.3 hPa | 0.51 mm | - | - | - |
| 1777570516 | 10.56° C | 100% | 1016.4 hPa | 0.51 mm | - | - | - |
| 1777568716 | 10.56° C | 100% | 1017.1 hPa | 0.76 mm | - | - | - |
| 1777566318 | 10.56° C | 100% | 1017.9 hPa | 0.76 mm | - | - | - |
| 1777565717 | 10.56° C | 100% | 1018.1 hPa | 0.76 mm | - | - | - |
| 1777561519 | 10.56° C | 100% | 1019.6 hPa | 0.51 mm | - | - | - |
| 1777559719 | 11.11° C | 100% | 1020.2 hPa | 0.25 mm | - | - | - |
| 1777550119 | 12.22° C | 97% | 1022 hPa | 0 mm | - | - | - |
| 1777548916 | 12.78° C | 100% | 1022.1 hPa | 0 mm | - | - | - |
| 1777545917 | 13.33° C | 90% | 1022 hPa | 0 mm | - | - | - |
| 1777542918 | 14.44° C | 71% | 1021.9 hPa | 0 mm | - | - | - |
| 1777542317 | 14.44° C | 69% | 1021.9 hPa | 0 mm | - | - | - |
| 1777541719 | 14.44° C | 68% | 1021.7 hPa | 0 mm | - | - | - |
| 1777533336 | 15.56° C | 53% | 1021.7 hPa | 0 mm | - | - | - |
| 1777532719 | 15.56° C | 53% | 1022 hPa | 0 mm | - | - | - |
| 1777530918 | 16.11° C | 50% | 1021.9 hPa | 0 mm | - | - | - |
| 1777529716 | 16.11° C | 50% | 1022 hPa | 0 mm | - | - | - |
| 1777523719 | 16.67° C | 48% | 1022.7 hPa | 0 mm | - | - | - |
| 1777520716 | 16.67° C | 55% | 1023 hPa | 0 mm | - | - | - |
| 1777518357 | 16.11° C | 58% | 1023.4 hPa | 0 mm | - | - | - |
| 1777517117 | 16.67° C | 56% | 1023.7 hPa | 0 mm | - | - | - |
| 1777508116 | 15° C | 60% | 1023.3 hPa | 0 mm | - | - | - |
| 1777501517 | 13.33° C | 92% | 1022.8 hPa | 0 mm | - | - | - |
| 1777498518 | 13.33° C | 92% | 1022.4 hPa | 0 mm | - | - | - |
* Rain latest hour (hover to see other rain measurements)
** Current wind speed in m/s (hover to see current wind gust speed)